Time;durP1;ratioP1;P1;durP2;ratioP2;P2;SDS_P1;SDS_P2;PMS_P1;PMS_P2;Temp;Humidity;BMP_temperature;BMP_pressure;BME280_temperature;BME280_humidity;BME280_pressure;Samples;Min_cycle;Max_cycle;Signal;HPM_P1;HPM_P2
2021/06/11 07:25:23;;;;;;;3.80;1.15;;;;;;;;;;5988782;22;20957;-51
2021/06/11 07:27:49;;;;;;;1.60;0.90;;;;;;;;;;5000225;28;20136;-49
2021/06/11 07:30:17;;;;;;;4.22;1.02;;;;;;;;;;5008182;28;20030;-50
2021/06/11 07:32:44;;;;;;;1.65;1.02;;;;;;;;;;5012370;28;20033;-49
2021/06/11 07:35:11;;;;;;;1.58;1.00;;;;;;;;;;4996230;28;20500;-48
2021/06/11 07:37:38;;;;;;;1.67;1.10;;;;;;;;;;5006918;28;20018;-45
2021/06/11 07:40:05;;;;;;;1.48;0.95;;;;;;;;;;5016079;28;20040;-44
2021/06/11 07:42:31;;;;;;;1.80;1.30;;;;;;;;;;5003395;28;20036;-46
2021/06/11 07:44:57;;;;;;;3.30;1.17;;;;;;;;;;5012371;28;20021;-45
2021/06/11 07:47:23;;;;;;;3.25;1.10;;;;;;;;;;5010123;28;20034;-54
2021/06/11 07:49:49;;;;;;;1.60;0.90;;;;;;;;;;5010373;28;20563;-53
2021/06/11 07:52:15;;;;;;;2.60;1.15;;;;;;;;;;4992581;28;20033;-54
2021/06/11 07:54:42;;;;;;;1.60;1.00;;;;;;;;;;5010193;28;20026;-59
2021/06/11 07:57:08;;;;;;;1.45;1.00;;;;;;;;;;5010532;28;20492;-55
2021/06/11 07:59:34;;;;;;;2.75;1.00;;;;;;;;;;5008048;28;20164;-58
2021/06/11 08:02:00;;;;;;;1.93;1.03;;;;;;;;;;5010281;28;20196;-58
2021/06/11 08:04:27;;;;;;;1.25;0.75;;;;;;;;;;5010642;28;20026;-58
2021/06/11 08:06:53;;;;;;;2.03;0.80;;;;;;;;;;5010095;28;20037;-54
2021/06/11 08:09:19;;;;;;;1.53;1.10;;;;;;;;;;4992450;28;20379;-53
2021/06/11 08:11:45;;;;;;;1.42;0.98;;;;;;;;;;4991691;28;21221;-55
2021/06/11 08:14:13;;;;;;;1.90;0.98;;;;;;;;;;4992160;28;20402;-55
2021/06/11 08:16:39;;;;;;;1.67;1.20;;;;;;;;;;5010092;28;20034;-59
2021/06/11 08:19:06;;;;;;;1.48;0.85;;;;;;;;;;5010981;28;20054;-57
2021/06/11 08:21:32;;;;;;;1.95;1.05;;;;;;;;;;4992451;28;20044;-56
2021/06/11 08:23:58;;;;;;;2.00;0.80;;;;;;;;;;5011194;28;20393;-56
2021/06/11 08:26:24;;;;;;;1.73;0.90;;;;;;;;;;5009998;28;20065;-56
2021/06/11 08:28:50;;;;;;;1.73;1.08;;;;;;;;;;4992790;28;20129;-49
2021/06/11 08:31:17;;;;;;;1.30;0.98;;;;;;;;;;5010795;28;20097;-54
2021/06/11 08:33:44;;;;;;;1.83;1.00;;;;;;;;;;5009550;28;20056;-60
2021/06/11 08:36:10;;;;;;;2.28;0.85;;;;;;;;;;5009669;28;20022;-58
2021/06/11 08:38:36;;;;;;;1.80;1.10;;;;;;;;;;4990947;28;20110;-62
2021/06/11 08:41:03;;;;;;;1.20;0.85;;;;;;;;;;5008965;28;20030;-57
2021/06/11 08:43:30;;;;;;;2.53;0.70;;;;;;;;;;5018253;28;20117;-57
2021/06/11 08:45:56;;;;;;;1.20;0.80;;;;;;;;;;5006331;28;20022;-59
2021/06/11 08:48:23;;;;;;;1.42;1.00;;;;;;;;;;5011194;28;20044;-58
2021/06/11 08:50:50;;;;;;;1.98;1.00;;;;;;;;;;5010044;28;20122;-56
2021/06/11 08:53:17;;;;;;;;;;;;;;;;;;5015662;28;20021;-61
2021/06/11 08:55:43;;;;;;;1.17;0.63;;;;;;;;;;5011113;28;19909;-56
2021/06/11 08:58:10;;;;;;;1.90;0.85;;;;;;;;;;5008489;28;20119;-59
2021/06/11 09:00:36;;;;;;;1.70;0.88;;;;;;;;;;5010899;28;20044;-59
2021/06/11 09:03:09;;;;;;;1.15;0.80;;;;;;;;;;5009482;28;20427;-60
2021/06/11 09:05:36;;;;;;;1.20;0.75;;;;;;;;;;4998123;28;20057;-61
2021/06/11 09:08:19;;;;;;;1.30;0.90;;;;;;;;;;5002545;28;20118;-58
2021/06/11 09:10:46;;;;;;;1.40;0.90;;;;;;;;;;4992455;28;20030;-58
2021/06/11 09:13:21;;;;;;;2.67;0.90;;;;;;;;;;5010105;28;20094;-57
2021/06/11 09:15:47;;;;;;;1.85;0.80;;;;;;;;;;4997080;28;20026;-57
2021/06/11 09:18:21;;;;;;;1.67;0.73;;;;;;;;;;5008736;28;20092;-57
2021/06/11 09:20:48;;;;;;;1.00;0.68;;;;;;;;;;5011159;28;20026;-57
2021/06/11 09:23:14;;;;;;;1.40;0.90;;;;;;;;;;5010871;28;20026;-57
2021/06/11 09:25:45;;;;;;;1.00;0.70;;;;;;;;;;4992393;28;20061;-56
2021/06/11 09:28:11;;;;;;;1.38;0.80;;;;;;;;;;5010354;28;20049;-59
2021/06/11 09:30:37;;;;;;;1.00;0.70;;;;;;;;;;5010299;28;20105;-57
2021/06/11 09:33:12;;;;;;;1.15;0.80;;;;;;;;;;4995688;28;20351;-57
2021/06/11 09:35:40;;;;;;;2.38;0.80;;;;;;;;;;5010519;28;20026;-57
2021/06/11 09:38:26;;;;;;;1.20;0.75;;;;;;;;;;4990775;28;20033;-57
2021/06/11 09:40:58;;;;;;;1.58;0.70;;;;;;;;;;5010618;28;20022;-59
2021/06/11 09:43:25;;;;;;;1.40;0.90;;;;;;;;;;4992617;28;20486;-56
2021/06/11 09:46:04;;;;;;;1.20;0.80;;;;;;;;;;5010414;28;20030;-57
2021/06/11 09:48:39;;;;;;;1.17;0.80;;;;;;;;;;5010542;28;20045;-54
2021/06/11 09:51:16;;;;;;;2.33;1.20;;;;;;;;;;5013678;28;20018;-59
2021/06/11 09:53:42;;;;;;;0.80;0.60;;;;;;;;;;4995751;28;20050;-57
2021/06/11 09:56:19;;;;;;;1.33;0.95;;;;;;;;;;4995261;28;20033;-55
2021/06/11 09:58:45;;;;;;;1.20;0.80;;;;;;;;;;5005952;28;20153;-57
2021/06/11 10:01:12;;;;;;;1.40;0.80;;;;;;;;;;5016372;28;20551;-58
2021/06/11 10:03:39;;;;;;;1.10;0.70;;;;;;;;;;5013595;28;20109;-60
2021/06/11 10:06:07;;;;;;;2.25;0.80;;;;;;;;;;5013595;28;20041;-54
2021/06/11 10:08:33;;;;;;;1.52;0.70;;;;;;;;;;5012920;28;20021;-58
2021/06/11 10:11:01;;;;;;;1.67;1.30;;;;;;;;;;5011444;28;20734;-49
2021/06/11 10:13:28;;;;;;;2.13;1.35;;;;;;;;;;4996205;28;20037;-47
2021/06/11 10:15:55;;;;;;;1.60;1.20;;;;;;;;;;5005173;28;20604;-47
2021/06/11 10:18:22;;;;;;;3.08;1.30;;;;;;;;;;5006752;28;20032;-49
2021/06/11 10:20:48;;;;;;;2.33;1.33;;;;;;;;;;5021323;28;20037;-49
2021/06/11 10:23:15;;;;;;;2.15;1.35;;;;;;;;;;4997876;28;20056;-48
2021/06/11 10:25:44;;;;;;;;;;;;;;;;;;4994708;28;20403;-49
2021/06/11 10:28:15;;;;;;;2.50;1.90;;;;;;;;;;5009219;28;20064;-48
2021/06/11 10:30:41;;;;;;;2.90;1.70;;;;;;;;;;5015485;28;20037;-57
2021/06/11 10:33:08;;;;;;;2.22;1.60;;;;;;;;;;5007113;28;20105;-55
2021/06/11 10:35:38;;;;;;;2.20;1.45;;;;;;;;;;5011401;28;20030;-54
2021/06/11 10:38:04;;;;;;;1.77;1.17;;;;;;;;;;5011005;28;20144;-57
2021/06/11 10:40:35;;;;;;;2.23;1.50;;;;;;;;;;4993885;28;20034;-55
2021/06/11 10:43:24;;;;;;;2.28;1.45;;;;;;;;;;4993761;28;20093;-56
2021/06/11 10:45:52;;;;;;;2.38;1.30;;;;;;;;;;4992490;28;20416;-58
2021/06/11 10:48:18;;;;;;;2.10;1.23;;;;;;;;;;4993027;28;20049;-59
2021/06/11 10:50:45;;;;;;;2.60;1.50;;;;;;;;;;4993182;28;20022;-59
2021/06/11 10:53:32;;;;;;;2.22;1.30;;;;;;;;;;5011934;28;20022;-57
2021/06/11 10:56:15;;;;;;;1.92;1.30;;;;;;;;;;5010781;28;20475;-55
2021/06/11 10:58:42;;;;;;;2.00;1.48;;;;;;;;;;5009895;28;20064;-58
2021/06/11 11:01:22;;;;;;;2.17;1.27;;;;;;;;;;4994542;28;20501;-55
2021/06/11 11:03:48;;;;;;;1.58;1.10;;;;;;;;;;5010727;28;20172;-57
2021/06/11 11:06:50;;;;;;;1.50;1.13;;;;;;;;;;4993421;28;20105;-56
2021/06/11 11:09:16;;;;;;;1.40;1.20;;;;;;;;;;4920146;29;20133;-57
2021/06/11 11:11:46;;;;;;;3.10;1.10;;;;;;;;;;4975864;28;20454;-59
2021/06/11 11:14:30;;;;;;;1.48;0.90;;;;;;;;;;4999880;28;20040;-56
2021/06/11 11:16:59;;;;;;;1.75;1.05;;;;;;;;;;5010405;28;20026;-57
2021/06/11 11:19:44;;;;;;;2.15;1.20;;;;;;;;;;5010594;28;20042;-55
2021/06/11 11:22:22;;;;;;;1.63;1.00;;;;;;;;;;4998008;28;20026;-58
2021/06/11 11:24:48;;;;;;;1.63;1.08;;;;;;;;;;4998928;28;20092;-56
2021/06/11 11:27:14;;;;;;;1.33;0.90;;;;;;;;;;5007726;28;20069;-55
2021/06/11 11:29:40;;;;;;;1.25;1.00;;;;;;;;;;5009594;28;20041;-56
2021/06/11 11:32:06;;;;;;;1.30;0.95;;;;;;;;;;4990073;28;20027;-60
2021/06/11 11:34:32;;;;;;;1.35;1.00;;;;;;;;;;5009973;28;20089;-55
2021/06/11 11:36:58;;;;;;;1.70;0.88;;;;;;;;;;5009815;28;20022;-57
2021/06/11 11:39:27;;;;;;;2.07;0.90;;;;;;;;;;5009879;28;20140;-58
2021/06/11 11:41:55;;;;;;;1.65;1.00;;;;;;;;;;5010159;28;20017;-58
2021/06/11 11:44:21;;;;;;;1.20;0.82;;;;;;;;;;5010220;28;20125;-55
2021/06/11 11:46:47;;;;;;;2.10;0.93;;;;;;;;;;5009441;28;20129;-58
2021/06/11 11:49:13;;;;;;;1.30;0.75;;;;;;;;;;4991614;28;20489;-57
2021/06/11 11:51:40;;;;;;;1.55;0.90;;;;;;;;;;5010221;28;20034;-57
2021/06/11 11:54:06;;;;;;;1.50;0.90;;;;;;;;;;4992553;28;20030;-59
2021/06/11 11:56:32;;;;;;;1.50;1.00;;;;;;;;;;5009088;28;20022;-55
2021/06/11 11:58:58;;;;;;;1.30;0.80;;;;;;;;;;4991163;28;20029;-58
2021/06/11 12:01:24;;;;;;;1.20;0.80;;;;;;;;;;5011269;28;20030;-50
2021/06/11 12:03:51;;;;;;;1.90;0.80;;;;;;;;;;5010302;28;20045;-51
2021/06/11 12:06:17;;;;;;;1.48;0.88;;;;;;;;;;4992189;28;20101;-50
2021/06/11 12:08:43;;;;;;;1.50;1.00;;;;;;;;;;5010317;28;20030;-48
2021/06/11 12:11:09;;;;;;;1.98;0.90;;;;;;;;;;5010213;28;20038;-51
2021/06/11 12:13:35;;;;;;;1.80;1.00;;;;;;;;;;4992320;28;20482;-49
2021/06/11 12:16:05;;;;;;;1.60;1.02;;;;;;;;;;5010057;28;20332;-51
2021/06/11 12:18:31;;;;;;;1.17;0.90;;;;;;;;;;4990782;28;20022;-54
2021/06/11 12:20:58;;;;;;;1.53;1.07;;;;;;;;;;4994014;28;20398;-59
2021/06/11 12:23:24;;;;;;;1.50;0.90;;;;;;;;;;5028158;28;20129;-55
2021/06/11 12:25:50;;;;;;;1.10;0.73;;;;;;;;;;5017507;28;20078;-46
2021/06/11 12:31:20;;;;;;;1.38;0.93;;;;;;;;;;5000401;28;20040;-47
2021/06/11 12:33:46;;;;;;;2.20;1.58;;;;;;;;;;5016350;28;20018;-49
2021/06/11 12:36:12;;;;;;;1.57;1.10;;;;;;;;;;5018532;28;20648;-51
2021/06/11 12:38:38;;;;;;;1.20;0.80;;;;;;;;;;4994848;28;20034;-48
2021/06/11 12:41:06;;;;;;;1.35;1.02;;;;;;;;;;5017763;28;20107;-51
2021/06/11 12:46:18;;;;;;;1.40;0.90;;;;;;;;;;5004247;28;20458;-48
2021/06/11 12:48:44;;;;;;;1.50;1.13;;;;;;;;;;5009557;28;20034;-49
2021/06/11 12:51:10;;;;;;;1.83;1.20;;;;;;;;;;5009047;28;20038;-48
2021/06/11 12:53:36;;;;;;;1.40;1.02;;;;;;;;;;5009498;28;20469;-48
2021/06/11 12:56:04;;;;;;;1.97;1.47;;;;;;;;;;4993561;28;20022;-46
2021/06/11 12:58:30;;;;;;;1.88;1.33;;;;;;;;;;5007834;28;20045;-47
2021/06/11 13:00:56;;;;;;;1.60;1.30;;;;;;;;;;4999257;28;20135;-60
2021/06/11 13:03:23;;;;;;;1.90;1.33;;;;;;;;;;5008385;28;20167;-55
2021/06/11 13:05:49;;;;;;;3.15;1.33;;;;;;;;;;5009814;28;20025;-56
2021/06/11 13:08:16;;;;;;;1.60;1.23;;;;;;;;;;5009473;28;20525;-58
2021/06/11 13:10:42;;;;;;;1.40;1.30;;;;;;;;;;5010055;28;20065;-52
2021/06/11 13:13:08;;;;;;;1.37;1.17;;;;;;;;;;4991812;28;20022;-53
2021/06/11 13:15:35;;;;;;;1.98;1.30;;;;;;;;;;4992386;28;20021;-59
2021/06/11 13:18:04;;;;;;;3.55;1.63;;;;;;;;;;5009521;28;20109;-57
2021/06/11 13:20:30;;;;;;;1.40;1.17;;;;;;;;;;4992797;28;20438;-55
2021/06/11 13:22:59;;;;;;;1.52;1.00;;;;;;;;;;5011360;28;20026;-56
2021/06/11 13:25:26;;;;;;;2.25;1.20;;;;;;;;;;5013498;28;20068;-56
2021/06/11 13:27:53;;;;;;;2.40;1.43;;;;;;;;;;4993147;28;20575;-57
2021/06/11 13:30:19;;;;;;;2.20;1.10;;;;;;;;;;4995532;28;20277;-57
2021/06/11 13:32:46;;;;;;;1.77;1.13;;;;;;;;;;4996782;28;20442;-55
2021/06/11 13:35:13;;;;;;;2.53;1.35;;;;;;;;;;5014842;28;20022;-57
2021/06/11 13:37:39;;;;;;;1.50;1.20;;;;;;;;;;4996724;28;20029;-55
2021/06/11 13:40:05;;;;;;;1.70;1.30;;;;;;;;;;5014712;28;20137;-55
2021/06/11 13:42:31;;;;;;;1.95;1.25;;;;;;;;;;4996117;28;20454;-57
2021/06/11 13:44:57;;;;;;;2.10;1.43;;;;;;;;;;5014104;28;20347;-56
2021/06/11 13:47:24;;;;;;;1.50;1.15;;;;;;;;;;5013769;28;20482;-56
2021/06/11 13:49:50;;;;;;;1.70;1.40;;;;;;;;;;5014888;28;20037;-54
2021/06/11 13:52:16;;;;;;;1.52;1.20;;;;;;;;;;4996501;28;20026;-56
2021/06/11 13:54:42;;;;;;;2.03;1.40;;;;;;;;;;4996142;28;20033;-56
2021/06/11 13:57:09;;;;;;;1.47;1.13;;;;;;;;;;5013214;28;20261;-54
2021/06/11 13:59:36;;;;;;;1.40;1.10;;;;;;;;;;4999580;28;20022;-56
2021/06/11 14:02:02;;;;;;;;;;;;;;;;;;4995970;28;20103;-55
2021/06/11 14:04:28;;;;;;;1.80;1.30;;;;;;;;;;5013195;28;19938;-56
2021/06/11 14:06:54;;;;;;;1.67;1.30;;;;;;;;;;5013192;28;20041;-55
2021/06/11 14:09:20;;;;;;;1.80;1.50;;;;;;;;;;4995131;28;20030;-48
2021/06/11 14:11:46;;;;;;;2.10;1.90;;;;;;;;;;5013111;28;20253;-50
2021/06/11 14:14:13;;;;;;;1.95;1.40;;;;;;;;;;5012451;28;20030;-47
2021/06/11 14:16:39;;;;;;;1.80;1.30;;;;;;;;;;5012562;28;20029;-48
2021/06/11 14:19:05;;;;;;;2.20;1.40;;;;;;;;;;5012473;28;20403;-49
2021/06/11 14:21:31;;;;;;;2.67;1.40;;;;;;;;;;5012844;28;20157;-49
2021/06/11 14:23:57;;;;;;;3.00;1.42;;;;;;;;;;4994415;28;20109;-53
2021/06/11 14:26:23;;;;;;;1.90;1.67;;;;;;;;;;5013056;28;20054;-54
2021/06/11 14:28:52;;;;;;;1.80;1.43;;;;;;;;;;5012787;28;20034;-57
2021/06/11 14:31:18;;;;;;;2.58;1.20;;;;;;;;;;5011683;28;20282;-49
2021/06/11 14:33:45;;;;;;;1.70;1.30;;;;;;;;;;5008237;28;20022;-47
2021/06/11 14:36:11;;;;;;;3.92;1.65;;;;;;;;;;5012770;28;20022;-55
2021/06/11 14:38:37;;;;;;;1.70;1.20;;;;;;;;;;5012410;28;20457;-54
2021/06/11 14:41:03;;;;;;;2.75;1.58;;;;;;;;;;4995427;28;20033;-51
2021/06/11 14:43:30;;;;;;;1.70;1.40;;;;;;;;;;5012264;28;20049;-51
2021/06/11 14:45:56;;;;;;;2.08;1.30;;;;;;;;;;5012406;28;20042;-50
2021/06/11 14:48:23;;;;;;;1.75;1.35;;;;;;;;;;4993368;28;20034;-51
2021/06/11 14:50:49;;;;;;;;;;;;;;;;;;4995223;28;20124;-47
2021/06/11 14:53:27;;;;;;;1.90;1.10;;;;;;;;;;5012111;28;20347;-49
2021/06/11 14:56:00;;;;;;;1.83;1.42;;;;;;;;;;5012996;28;20026;-51
2021/06/11 14:58:27;;;;;;;1.60;1.27;;;;;;;;;;4978952;28;20030;-52
2021/06/11 15:00:55;;;;;;;4.60;1.50;;;;;;;;;;5000009;28;20025;-48
2021/06/11 15:03:22;;;;;;;2.28;1.42;;;;;;;;;;5012490;28;20049;-49
2021/06/11 15:05:48;;;;;;;2.08;1.27;;;;;;;;;;4994728;28;20147;-49
2021/06/11 15:08:14;;;;;;;2.57;1.40;;;;;;;;;;5012058;28;20030;-47
2021/06/11 15:10:41;;;;;;;2.15;1.38;;;;;;;;;;4994440;28;20032;-47
2021/06/11 15:13:13;;;;;;;1.95;1.20;;;;;;;;;;5011892;28;20080;-50
2021/06/11 15:15:40;;;;;;;1.85;1.42;;;;;;;;;;5012076;28;20030;-47
2021/06/11 15:18:06;;;;;;;1.85;1.30;;;;;;;;;;4994692;28;20395;-53
2021/06/11 15:20:34;;;;;;;2.70;1.40;;;;;;;;;;5011745;28;20136;-49
2021/06/11 15:23:00;;;;;;;1.85;1.25;;;;;;;;;;5011508;28;20285;-45
2021/06/11 15:25:29;;;;;;;1.60;1.50;;;;;;;;;;5011594;28;20022;-47
2021/06/11 15:27:55;;;;;;;3.35;1.30;;;;;;;;;;5011112;28;20153;-47
2021/06/11 15:30:22;;;;;;;2.72;1.35;;;;;;;;;;5011164;28;20036;-50
2021/06/11 15:32:48;;;;;;;1.80;1.20;;;;;;;;;;5007491;28;20037;-49
2021/06/11 15:35:16;;;;;;;2.43;1.20;;;;;;;;;;5011583;28;20022;-47
2021/06/11 15:37:42;;;;;;;2.08;1.30;;;;;;;;;;5010615;28;20716;-48
2021/06/11 15:40:08;;;;;;;2.22;1.35;;;;;;;;;;5011304;28;20038;-50
2021/06/11 15:42:37;;;;;;;1.45;0.90;;;;;;;;;;5010974;28;20033;-49
2021/06/11 15:45:04;;;;;;;1.33;1.10;;;;;;;;;;5010804;28;20058;-51
2021/06/11 15:47:30;;;;;;;;;;;;;;;;;;5011846;28;20105;-51
2021/06/11 15:49:57;;;;;;;1.60;1.20;;;;;;;;;;5011335;28;20001;-48
2021/06/11 15:52:24;;;;;;;1.60;1.20;;;;;;;;;;5011293;28;20084;-49
2021/06/11 15:54:50;;;;;;;2.05;1.10;;;;;;;;;;5010333;28;20022;-47
2021/06/11 15:57:16;;;;;;;1.47;1.20;;;;;;;;;;5010877;28;20022;-48
2021/06/11 15:59:42;;;;;;;1.63;1.33;;;;;;;;;;4997139;28;20510;-48
2021/06/11 16:02:08;;;;;;;1.47;0.90;;;;;;;;;;5010329;28;20018;-48
2021/06/11 16:04:34;;;;;;;1.30;0.80;;;;;;;;;;5010438;28;20419;-48
2021/06/11 16:07:01;;;;;;;1.13;0.80;;;;;;;;;;5010708;28;20018;-47
2021/06/11 16:09:27;;;;;;;1.40;1.00;;;;;;;;;;5010509;28;20452;-47
2021/06/11 16:11:56;;;;;;;1.42;1.10;;;;;;;;;;5010592;28;20030;-47
2021/06/11 16:14:22;;;;;;;1.13;0.80;;;;;;;;;;5009918;28;20044;-47
2021/06/11 16:16:48;;;;;;;1.15;0.82;;;;;;;;;;5010772;28;20089;-47
2021/06/11 16:19:14;;;;;;;1.30;1.00;;;;;;;;;;5010135;28;20163;-47
2021/06/11 16:21:40;;;;;;;1.90;0.93;;;;;;;;;;5010297;28;20081;-50
2021/06/11 16:24:07;;;;;;;1.42;0.90;;;;;;;;;;5010386;28;20478;-49
2021/06/11 16:26:33;;;;;;;1.05;0.80;;;;;;;;;;5010791;28;20141;-47
2021/06/11 16:28:59;;;;;;;1.27;0.80;;;;;;;;;;4991429;28;20041;-47
2021/06/11 16:31:25;;;;;;;1.20;0.90;;;;;;;;;;5008893;28;20025;-47
2021/06/11 16:33:51;;;;;;;1.30;0.93;;;;;;;;;;5007261;28;20053;-47
2021/06/11 16:36:18;;;;;;;1.27;0.97;;;;;;;;;;5010334;28;20018;-46
2021/06/11 16:38:48;;;;;;;1.20;0.73;;;;;;;;;;5005512;28;20030;-46
2021/06/11 16:41:14;;;;;;;2.30;1.00;;;;;;;;;;5009744;28;20053;-43
2021/06/11 16:43:41;;;;;;;1.30;0.90;;;;;;;;;;5009357;28;20040;-44
2021/06/11 16:46:07;;;;;;;1.50;0.93;;;;;;;;;;5010030;28;20168;-48
2021/06/11 16:48:34;;;;;;;1.30;0.93;;;;;;;;;;5010759;28;20038;-41
2021/06/11 16:51:00;;;;;;;1.25;1.00;;;;;;;;;;5010541;28;20411;-50
2021/06/11 16:53:26;;;;;;;2.20;1.05;;;;;;;;;;5004994;28;20026;-50
2021/06/11 16:55:53;;;;;;;1.20;0.98;;;;;;;;;;5002424;28;20037;-50
2021/06/11 16:58:22;;;;;;;1.52;1.00;;;;;;;;;;4992682;28;20019;-54
2021/06/11 17:00:48;;;;;;;1.23;1.00;;;;;;;;;;5007409;28;20034;-50
2021/06/11 17:03:14;;;;;;;2.90;0.90;;;;;;;;;;5008700;28;20057;-53
2021/06/11 17:05:40;;;;;;;2.33;0.90;;;;;;;;;;5008711;28;20744;-51
2021/06/11 17:08:06;;;;;;;1.40;1.00;;;;;;;;;;5009415;28;20030;-50
2021/06/11 17:10:35;;;;;;;2.30;1.10;;;;;;;;;;5010012;28;20026;-53
2021/06/11 17:13:01;;;;;;;1.35;1.10;;;;;;;;;;5008353;28;20614;-49
2021/06/11 17:15:28;;;;;;;1.48;0.90;;;;;;;;;;4991701;28;20045;-51
2021/06/11 17:17:54;;;;;;;1.65;1.08;;;;;;;;;;5009913;28;20049;-50
2021/06/11 17:20:22;;;;;;;2.88;1.00;;;;;;;;;;5009992;28;20048;-45
2021/06/11 17:22:52;;;;;;;2.58;1.10;;;;;;;;;;5009811;28;20105;-46
2021/06/11 17:25:26;;;;;;;2.20;1.02;;;;;;;;;;5009604;28;20041;-45
2021/06/11 17:27:53;;;;;;;1.63;1.00;;;;;;;;;;5008733;28;20050;-45
2021/06/11 17:30:19;;;;;;;5.25;2.58;;;;;;;;;;4992467;28;20033;-45
2021/06/11 17:32:45;;;;;;;17.20;8.47;;;;;;;;;;5006402;28;20038;-45
2021/06/11 17:35:11;;;;;;;21.48;11.38;;;;;;;;;;5009337;28;20257;-44
2021/06/11 17:37:37;;;;;;;18.70;8.93;;;;;;;;;;4991701;28;20069;-44
2021/06/11 17:40:06;;;;;;;12.77;8.48;;;;;;;;;;5009211;28;20307;-47
2021/06/11 17:42:33;;;;;;;12.00;7.90;;;;;;;;;;5009381;28;20371;-45
2021/06/11 17:44:59;;;;;;;11.38;6.43;;;;;;;;;;4991636;28;20116;-45
2021/06/11 17:47:26;;;;;;;8.65;5.93;;;;;;;;;;4990874;28;20057;-46
2021/06/11 17:49:53;;;;;;;8.80;5.00;;;;;;;;;;4991128;28;20113;-47
2021/06/11 17:52:20;;;;;;;9.48;5.47;;;;;;;;;;4990590;28;20018;-46
2021/06/11 17:54:46;;;;;;;10.40;5.30;;;;;;;;;;5008495;28;20106;-46
2021/06/11 17:57:13;;;;;;;8.25;4.75;;;;;;;;;;4990569;28;20029;-47
2021/06/11 17:59:43;;;;;;;5.97;4.30;;;;;;;;;;4991131;28;20467;-45
2021/06/11 18:02:15;;;;;;;4.82;3.33;;;;;;;;;;5007534;28;20450;-44
2021/06/11 18:04:41;;;;;;;5.80;3.78;;;;;;;;;;4990373;28;20032;-45
2021/06/11 18:07:09;;;;;;;4.57;3.42;;;;;;;;;;5008725;28;20136;-46
2021/06/11 18:09:36;;;;;;;6.47;3.63;;;;;;;;;;4993799;28;20045;-47
2021/06/11 18:12:03;;;;;;;4.97;3.17;;;;;;;;;;5012643;28;20117;-47
2021/06/11 18:14:32;;;;;;;5.88;2.90;;;;;;;;;;5012767;28;20026;-45
2021/06/11 18:16:58;;;;;;;5.55;2.80;;;;;;;;;;4995330;28;20030;-46
2021/06/11 18:19:24;;;;;;;5.05;2.97;;;;;;;;;;5010642;28;20030;-48
2021/06/11 18:21:54;;;;;;;3.60;2.65;;;;;;;;;;4994622;28;20026;-46
2021/06/11 18:24:21;;;;;;;4.22;2.63;;;;;;;;;;5011779;28;20022;-46
2021/06/11 18:27:07;;;;;;;3.50;2.33;;;;;;;;;;4994499;28;20046;-44
2021/06/11 18:29:41;;;;;;;5.03;2.73;;;;;;;;;;5010259;28;20040;-46
2021/06/11 18:32:15;;;;;;;3.90;2.40;;;;;;;;;;4994175;28;20030;-45
2021/06/11 18:34:58;;;;;;;3.22;2.45;;;;;;;;;;4996609;28;20030;-46
2021/06/11 18:37:26;;;;;;;3.95;2.30;;;;;;;;;;4994637;28;20061;-45
2021/06/11 18:39:52;;;;;;;3.15;2.03;;;;;;;;;;5012511;28;20034;-48
2021/06/11 18:42:18;;;;;;;3.10;2.40;;;;;;;;;;5012308;28;20036;-45
2021/06/11 18:44:47;;;;;;;3.08;2.25;;;;;;;;;;4994306;28;20113;-45
2021/06/11 18:47:14;;;;;;;2.60;1.77;;;;;;;;;;4994278;28;20036;-45
2021/06/11 18:49:42;;;;;;;2.60;2.25;;;;;;;;;;4994370;28;20022;-45
2021/06/11 18:52:09;;;;;;;2.65;2.13;;;;;;;;;;5012506;28;20038;-51
2021/06/11 18:54:35;;;;;;;2.67;2.35;;;;;;;;;;4999812;28;20050;-48
2021/06/11 18:57:15;;;;;;;2.50;2.30;;;;;;;;;;4994220;28;20034;-47
2021/06/11 18:59:41;;;;;;;3.92;2.53;;;;;;;;;;5007829;28;20038;-48
2021/06/11 19:02:22;;;;;;;3.22;2.35;;;;;;;;;;5007006;28;20033;-50
2021/06/11 19:04:49;;;;;;;2.95;2.20;;;;;;;;;;4994491;28;20121;-48
2021/06/11 19:07:18;;;;;;;2.60;1.90;;;;;;;;;;5011492;28;20093;-49
2021/06/11 19:09:45;;;;;;;2.53;2.08;;;;;;;;;;4994019;28;20018;-48
2021/06/11 19:12:12;;;;;;;3.28;2.15;;;;;;;;;;4994074;28;20053;-50
2021/06/11 19:14:39;;;;;;;3.58;2.08;;;;;;;;;;5011593;28;20049;-50
2021/06/11 19:17:07;;;;;;;2.08;1.88;;;;;;;;;;4993408;28;20117;-51
2021/06/11 19:19:36;;;;;;;2.33;1.80;;;;;;;;;;4993557;28;20034;-48
2021/06/11 19:22:02;;;;;;;2.40;1.88;;;;;;;;;;4993946;28;20558;-51
2021/06/11 19:24:37;;;;;;;2.87;2.13;;;;;;;;;;5011537;28;20080;-48
2021/06/11 19:27:16;;;;;;;2.78;2.13;;;;;;;;;;4993162;28;20730;-48
2021/06/11 19:29:42;;;;;;;2.17;1.70;;;;;;;;;;5011135;28;20026;-48
2021/06/11 19:32:08;;;;;;;3.20;2.00;;;;;;;;;;5011269;28;20355;-48
2021/06/11 19:34:34;;;;;;;2.85;1.98;;;;;;;;;;5009860;28;20390;-47
2021/06/11 19:37:02;;;;;;;2.65;1.80;;;;;;;;;;4993064;28;20026;-46
2021/06/11 19:39:41;;;;;;;2.60;1.90;;;;;;;;;;4993226;28;20041;-50
2021/06/11 19:42:27;;;;;;;3.03;2.15;;;;;;;;;;5011196;28;20045;-49
2021/06/11 19:45:07;;;;;;;2.67;1.88;;;;;;;;;;5011188;28;20502;-49
2021/06/11 19:47:34;;;;;;;2.25;1.95;;;;;;;;;;5011130;28;20022;-47
2021/06/11 19:50:02;;;;;;;2.50;1.90;;;;;;;;;;5010842;28;20077;-47
2021/06/11 19:52:28;;;;;;;2.25;1.92;;;;;;;;;;4992809;28;20034;-48
2021/06/11 19:54:55;;;;;;;2.70;2.05;;;;;;;;;;5010473;28;20080;-43
